createdAt,value
2023-10-26T00:00:51.879Z,21.48
2023-10-26T00:04:53.633Z,22.98
2023-10-26T00:08:55.325Z,22.90
2023-10-26T00:12:57.065Z,22.98
2023-10-26T00:16:58.762Z,22.00
2023-10-26T00:21:01.944Z,24.10
2023-10-26T00:25:04.197Z,21.70
2023-10-26T00:29:05.951Z,23.05
2023-10-26T00:33:07.670Z,19.75
2023-10-26T00:37:09.449Z,21.58
2023-10-26T00:41:11.110Z,24.42
2023-10-26T00:45:12.857Z,19.83
2023-10-26T00:49:16.708Z,22.30
2023-10-26T00:53:21.199Z,21.45
2023-10-26T00:57:24.859Z,22.13
2023-10-26T01:01:27.756Z,19.73
2023-10-26T01:05:29.429Z,23.02
2023-10-26T01:09:31.108Z,22.17
2023-10-26T01:13:34.379Z,23.87
2023-10-26T01:17:39.212Z,19.77
2023-10-26T01:21:54.342Z,22.65
2023-10-26T01:25:57.549Z,22.98
2023-10-26T01:29:59.612Z,21.30
2023-10-26T01:34:01.348Z,20.98
2023-10-26T01:38:03.482Z,21.67
2023-10-26T01:42:10.808Z,19.92
2023-10-26T01:46:12.514Z,18.27
2023-10-26T01:50:14.431Z,21.50
2023-10-26T01:54:16.192Z,21.70
2023-10-26T01:58:18.025Z,18.00
2023-10-26T02:02:19.684Z,20.33
2023-10-26T02:06:21.649Z,18.55
2023-10-26T02:10:26.683Z,19.02
2023-10-26T02:14:28.325Z,19.87
2023-10-26T02:18:30.798Z,22.23
2023-10-26T02:22:32.533Z,20.25
2023-10-26T02:26:34.220Z,22.45
2023-10-26T02:30:35.879Z,19.58
2023-10-26T02:34:37.678Z,20.12
2023-10-26T02:38:39.506Z,19.92
2023-10-26T02:42:41.763Z,19.65
2023-10-26T02:46:43.457Z,21.00
2023-10-26T02:50:45.170Z,19.92
2023-10-26T02:54:46.913Z,19.60
2023-10-26T02:58:48.829Z,22.05
2023-10-26T03:02:50.607Z,22.02
2023-10-26T03:06:52.341Z,22.15
2023-10-26T03:10:54.031Z,21.67
2023-10-26T03:14:55.831Z,18.40
2023-10-26T03:18:57.515Z,18.87
2023-10-26T03:22:59.484Z,17.90
2023-10-26T03:27:01.187Z,20.55
2023-10-26T03:31:02.967Z,19.23
2023-10-26T03:35:05.155Z,25.48
2023-10-26T03:39:07.029Z,18.52
2023-10-26T03:43:08.795Z,18.75
2023-10-26T03:47:10.573Z,17.80
2023-10-26T03:51:12.323Z,17.27
2023-10-26T03:55:14.012Z,17.80
2023-10-26T03:59:15.676Z,18.37
2023-10-26T04:03:17.431Z,17.52
2023-10-26T04:07:19.587Z,19.10
2023-10-26T04:11:21.295Z,19.65
2023-10-26T04:15:23.104Z,20.52
2023-10-26T04:19:24.872Z,18.20
2023-10-26T04:23:27.576Z,20.77
2023-10-26T04:27:29.285Z,22.17
2023-10-26T04:31:31.006Z,21.10
2023-10-26T04:35:32.674Z,19.12
2023-10-26T04:39:34.650Z,19.27
2023-10-26T04:43:36.378Z,20.35
2023-10-26T04:47:38.923Z,23.17
2023-10-26T04:51:40.719Z,21.80
2023-10-26T04:55:42.460Z,25.20
2023-10-26T04:59:44.122Z,19.02
2023-10-26T05:03:45.905Z,20.80
2023-10-26T05:07:47.774Z,21.90
2023-10-26T05:11:49.439Z,20.02
2023-10-26T05:15:51.144Z,21.70
2023-10-26T05:19:53.050Z,21.08
2023-10-26T05:23:54.716Z,24.65
2023-10-26T05:27:56.429Z,21.23
2023-10-26T05:31:58.947Z,22.35
2023-10-26T05:36:00.701Z,22.48
2023-10-26T05:40:02.542Z,24.73
2023-10-26T05:44:04.333Z,23.40
2023-10-26T05:48:06.712Z,23.33
2023-10-26T05:52:08.473Z,22.45
2023-10-26T05:56:11.697Z,23.52
2023-10-26T06:00:13.891Z,27.50
2023-10-26T06:04:15.685Z,23.55
2023-10-26T06:08:18.145Z,24.17
2023-10-26T06:12:19.871Z,27.75
2023-10-26T06:16:21.603Z,24.12
2023-10-26T06:20:28.643Z,24.05
2023-10-26T06:24:30.487Z,23.90
2023-10-26T06:28:32.219Z,25.08
2023-10-26T06:32:36.047Z,22.70
2023-10-26T06:36:37.888Z,24.15
2023-10-26T06:40:39.666Z,23.55
2023-10-26T06:44:41.532Z,26.05
2023-10-26T06:48:43.621Z,25.50
2023-10-26T06:52:45.566Z,25.15
2023-10-26T06:56:47.256Z,26.08
2023-10-26T07:00:52.803Z,27.42
2023-10-26T07:04:55.332Z,24.55
2023-10-26T07:08:57.108Z,25.73
2023-10-26T07:12:58.848Z,32.92
2023-10-26T07:17:00.587Z,23.77
2023-10-26T07:21:06.774Z,24.17
2023-10-26T07:25:08.904Z,26.52
2023-10-26T07:29:10.667Z,23.45
2023-10-26T07:33:12.499Z,25.67
2023-10-26T07:37:14.579Z,29.35
2023-10-26T07:41:16.254Z,25.75
2023-10-26T07:45:18.170Z,24.12
2023-10-26T07:49:19.928Z,27.48
2023-10-26T07:53:21.988Z,25.88
2023-10-26T07:57:24.041Z,27.52
2023-10-26T08:01:25.833Z,24.90
2023-10-26T08:05:27.551Z,26.00
2023-10-26T08:09:32.998Z,27.05
2023-10-26T08:13:35.063Z,23.38
2023-10-26T08:17:37.270Z,20.67
2023-10-26T08:21:39.104Z,22.13
2023-10-26T08:25:40.820Z,22.87
2023-10-26T08:29:42.736Z,23.05
2023-10-26T08:33:44.576Z,24.17
2023-10-26T08:37:46.798Z,25.12
2023-10-26T08:41:58.822Z,22.23
2023-10-26T08:46:04.254Z,19.42
2023-10-26T08:50:16.320Z,20.50
2023-10-26T08:54:18.715Z,22.05
2023-10-26T08:58:21.623Z,15.68
2023-10-26T09:02:23.502Z,17.95
2023-10-26T09:06:25.530Z,15.88
2023-10-26T09:10:32.126Z,14.70
2023-10-26T09:14:33.880Z,17.12
2023-10-26T09:18:36.959Z,14.98
2023-10-26T09:22:39.656Z,15.75
2023-10-26T09:26:41.322Z,17.50
2023-10-26T09:30:43.463Z,13.43
2023-10-26T09:34:47.248Z,12.60
2023-10-26T09:38:49.409Z,11.45
2023-10-26T09:42:51.588Z,10.02
2023-10-26T09:46:53.523Z,10.05
2023-10-26T09:50:58.065Z,11.30
2023-10-26T09:55:00.608Z,10.85
2023-10-26T09:59:03.022Z,11.57
2023-10-26T10:03:18.380Z,10.25
2023-10-26T10:07:44.935Z,11.12
2023-10-26T10:12:08.978Z,15.20
2023-10-26T10:16:36.532Z,11.00
2023-10-26T10:20:42.065Z,14.32
2023-10-26T10:24:44.528Z,10.77
2023-10-26T10:28:51.819Z,11.80
2023-10-26T10:37:12.857Z,11.15
2023-10-26T10:41:17.258Z,12.18
2023-10-26T10:45:19.674Z,11.02
2023-10-26T10:49:24.980Z,12.40
2023-10-26T10:53:28.923Z,11.50
2023-10-26T10:57:30.710Z,11.35
2023-10-26T11:01:33.154Z,10.63
2023-10-26T11:05:40.672Z,12.52
2023-10-26T11:09:42.680Z,11.75
2023-10-26T11:13:44.415Z,9.35
2023-10-26T11:17:46.276Z,10.73
2023-10-26T11:21:53.756Z,8.50
2023-10-26T11:25:55.428Z,9.77
2023-10-26T11:30:03.156Z,8.63
2023-10-26T11:34:08.247Z,9.15
2023-10-26T11:38:09.928Z,5.78
2023-10-26T11:42:11.568Z,5.80
2023-10-26T11:46:13.356Z,6.75
2023-10-26T11:50:37.644Z,7.95
2023-10-26T11:54:52.074Z,8.27
2023-10-26T11:58:53.908Z,8.88
2023-10-26T12:02:59.644Z,7.45
2023-10-26T12:07:01.432Z,8.43
2023-10-26T12:11:05.219Z,8.95
2023-10-26T12:15:07.915Z,10.82
2023-10-26T12:19:11.239Z,10.15
2023-10-26T12:23:12.921Z,9.27
2023-10-26T12:27:17.421Z,8.55
2023-10-26T12:31:19.284Z,9.15
2023-10-26T12:35:21.632Z,9.50
2023-10-26T12:39:23.478Z,12.15
2023-10-26T12:43:25.178Z,7.45
2023-10-26T12:47:26.960Z,7.30
2023-10-26T12:51:28.681Z,6.82
2023-10-26T12:55:31.042Z,7.47
2023-10-26T12:59:32.760Z,7.82
2023-10-26T13:03:34.516Z,7.10
2023-10-26T13:07:36.367Z,7.93
2023-10-26T13:11:38.042Z,9.73
2023-10-26T13:15:40.657Z,9.70
2023-10-26T13:19:42.488Z,9.32
2023-10-26T13:23:44.507Z,11.15
2023-10-26T13:27:46.262Z,7.43
2023-10-26T13:31:48.019Z,8.40
2023-10-26T13:35:49.924Z,7.57
2023-10-26T13:39:51.663Z,8.65
2023-10-26T13:43:54.490Z,12.00
2023-10-26T13:47:56.210Z,7.95
2023-10-26T13:51:57.975Z,8.60
2023-10-26T13:56:02.949Z,6.20
2023-10-26T14:00:08.040Z,6.78
2023-10-26T14:04:09.968Z,8.82
2023-10-26T14:08:11.678Z,6.87
2023-10-26T14:12:14.186Z,6.20
2023-10-26T14:16:16.878Z,6.12
2023-10-26T14:20:18.718Z,6.65
2023-10-26T14:24:20.432Z,6.62
2023-10-26T14:28:22.174Z,6.95
2023-10-26T14:32:23.989Z,8.48
2023-10-26T14:36:25.688Z,7.80
2023-10-26T14:40:29.596Z,5.95
2023-10-26T14:44:31.627Z,7.10
2023-10-26T14:48:33.425Z,9.13
2023-10-26T14:52:35.427Z,6.93
2023-10-26T14:56:37.213Z,6.10
2023-10-26T15:00:39.761Z,7.43
2023-10-26T15:04:41.773Z,6.87
2023-10-26T15:08:43.597Z,5.20
2023-10-26T15:12:45.373Z,6.57
2023-10-26T15:16:47.189Z,7.90
2023-10-26T15:20:49.009Z,10.48
2023-10-26T15:24:50.778Z,8.50
2023-10-26T15:28:52.542Z,7.95
2023-10-26T15:32:54.320Z,9.93
2023-10-26T15:36:56.825Z,10.18
2023-10-26T15:41:04.224Z,7.35
2023-10-26T15:45:06.489Z,12.88
2023-10-26T15:49:33.065Z,13.93
2023-10-26T15:53:31.406Z,15.48
2023-10-26T15:57:33.845Z,11.93
2023-10-26T16:01:35.713Z,9.90
2023-10-26T16:05:37.471Z,11.55
2023-10-26T16:09:39.259Z,11.32
2023-10-26T16:13:45.863Z,9.00
2023-10-26T16:17:47.655Z,12.25
2023-10-26T16:21:49.431Z,9.63
2023-10-26T16:25:51.173Z,9.20
2023-10-26T16:29:52.931Z,11.73
2023-10-26T16:33:54.700Z,11.23
2023-10-26T16:37:56.403Z,12.18
2023-10-26T16:41:58.127Z,12.77
2023-10-26T16:46:00.638Z,15.63
2023-10-26T16:50:02.394Z,13.98
2023-10-26T16:54:04.604Z,12.75
2023-10-26T16:58:07.867Z,14.48
2023-10-26T17:02:09.573Z,15.75
2023-10-26T17:06:11.571Z,13.20
2023-10-26T17:10:13.363Z,13.00
2023-10-26T17:14:15.136Z,12.90
2023-10-26T17:18:16.871Z,14.35
2023-10-26T17:22:21.660Z,12.25
2023-10-26T17:26:23.727Z,10.20
2023-10-26T17:30:25.390Z,10.65
2023-10-26T17:34:27.971Z,8.65
2023-10-26T17:38:29.866Z,11.85
2023-10-26T17:42:31.639Z,8.48
2023-10-26T17:46:33.439Z,7.80
2023-10-26T17:50:42.399Z,7.55
2023-10-26T17:54:44.227Z,8.55
2023-10-26T17:58:45.937Z,7.35
2023-10-26T18:02:47.633Z,6.65
2023-10-26T18:06:49.397Z,6.62
2023-10-26T18:10:51.115Z,6.50
2023-10-26T18:14:52.862Z,7.90
2023-10-26T18:18:54.621Z,9.45
2023-10-26T18:22:56.350Z,6.12
2023-10-26T18:26:58.088Z,7.32
2023-10-26T18:31:04.240Z,6.43
2023-10-26T18:35:06.552Z,6.70
2023-10-26T18:39:08.464Z,6.70
2023-10-26T18:43:10.245Z,6.65
2023-10-26T18:47:12.043Z,6.97
2023-10-26T18:51:13.905Z,7.82
2023-10-26T18:55:16.399Z,6.90
2023-10-26T18:59:18.154Z,7.43
2023-10-26T19:03:22.323Z,9.60
2023-10-26T19:07:24.112Z,6.95
2023-10-26T19:11:25.957Z,7.25
2023-10-26T19:15:27.786Z,10.05
2023-10-26T19:19:29.634Z,9.25
2023-10-26T19:23:31.601Z,8.02
2023-10-26T19:27:33.342Z,9.23
2023-10-26T19:31:35.232Z,6.93
2023-10-26T19:35:38.196Z,9.40
2023-10-26T19:39:40.044Z,7.00
2023-10-26T19:43:41.882Z,8.18
2023-10-26T19:47:44.369Z,10.68
2023-10-26T19:56:50.685Z,9.77
2023-10-26T20:00:52.828Z,8.48
2023-10-26T20:04:54.624Z,10.82
2023-10-26T20:08:56.377Z,9.57
2023-10-26T20:12:58.179Z,11.95
2023-10-26T20:17:00.708Z,8.23
2023-10-26T20:21:02.457Z,11.57
2023-10-26T20:25:05.222Z,9.75
2023-10-26T20:29:07.526Z,8.90
2023-10-26T20:33:09.251Z,10.68
2023-10-26T20:37:11.622Z,7.70
2023-10-26T20:41:13.381Z,9.98
2023-10-26T20:45:15.170Z,11.95
2023-10-26T20:49:17.131Z,10.18
2023-10-26T20:53:21.724Z,8.65
2023-10-26T20:57:23.598Z,11.35
2023-10-26T21:01:25.385Z,10.00
2023-10-26T21:05:27.674Z,10.52
2023-10-26T21:09:29.478Z,12.57
2023-10-26T21:13:31.840Z,10.73
2023-10-26T21:17:34.948Z,11.38
2023-10-26T21:21:36.841Z,10.90
2023-10-26T21:25:38.640Z,10.77
2023-10-26T21:29:40.488Z,10.95
2023-10-26T21:33:42.399Z,11.68
2023-10-26T21:37:44.117Z,12.90
2023-10-26T21:41:45.866Z,10.38
2023-10-26T21:45:47.630Z,10.98
2023-10-26T21:49:49.429Z,12.30
2023-10-26T21:53:51.122Z,10.43
2023-10-26T21:57:53.033Z,16.98
2023-10-26T22:01:54.918Z,11.27
2023-10-26T22:05:56.901Z,10.98
2023-10-26T22:09:58.837Z,11.60
2023-10-26T22:14:00.637Z,13.10
2023-10-26T22:18:02.561Z,12.73
2023-10-26T22:22:04.577Z,11.93
2023-10-26T22:26:06.358Z,17.27
2023-10-26T22:30:08.669Z,11.68
2023-10-26T22:34:10.475Z,12.73
2023-10-26T22:38:12.188Z,12.93
2023-10-26T22:42:15.630Z,12.25
2023-10-26T22:46:18.184Z,11.63
2023-10-26T22:50:20.343Z,11.85
2023-10-26T22:54:22.418Z,11.63
2023-10-26T22:58:24.814Z,10.10
2023-10-26T23:02:26.689Z,12.25
2023-10-26T23:06:29.316Z,16.00
2023-10-26T23:10:31.102Z,12.50
2023-10-26T23:14:32.849Z,10.32
2023-10-26T23:18:34.631Z,11.50
2023-10-26T23:22:36.433Z,10.48
2023-10-26T23:26:38.146Z,13.25
2023-10-26T23:30:40.042Z,13.13
2023-10-26T23:34:42.154Z,11.98
2023-10-26T23:38:46.015Z,15.07
2023-10-26T23:42:47.757Z,10.73
2023-10-26T23:46:49.487Z,9.35
2023-10-26T23:50:51.230Z,12.25
2023-10-26T23:54:54.240Z,8.98
2023-10-26T23:58:56.167Z,13.57
